createdAt,value
2017-08-05T00:00:11.026Z,1.10
2017-08-05T00:02:38.812Z,1.50
2017-08-05T00:05:12.954Z,1.90
2017-08-05T00:07:50.572Z,1.20
2017-08-05T00:10:21.283Z,1.40
2017-08-05T00:12:49.831Z,1.07
2017-08-05T00:15:17.316Z,1.87
2017-08-05T00:17:45.600Z,1.50
2017-08-05T00:20:20.462Z,1.40
2017-08-05T00:22:47.963Z,2.10
2017-08-05T00:25:23.062Z,1.47
2017-08-05T00:27:50.548Z,1.67
2017-08-05T00:30:21.354Z,1.70
2017-08-05T00:32:51.891Z,2.10
2017-08-05T00:35:19.389Z,0.87
2017-08-05T00:37:46.889Z,1.40
2017-08-05T00:40:14.387Z,1.93
2017-08-05T00:42:50.268Z,1.50
2017-08-05T00:45:17.770Z,1.77
2017-08-05T00:47:51.706Z,1.40
2017-08-05T00:50:19.194Z,1.20
2017-08-05T00:52:47.451Z,1.43
2017-08-05T00:55:21.182Z,1.67
2017-08-05T00:57:48.672Z,2.07
2017-08-05T01:00:22.621Z,1.67
2017-08-05T01:02:50.107Z,1.70
2017-08-05T01:05:18.356Z,1.93
2017-08-05T01:07:46.151Z,2.13
2017-08-05T01:10:14.419Z,2.53
2017-08-05T01:12:50.555Z,1.50
2017-08-05T01:15:21.076Z,1.80
2017-08-05T01:17:52.071Z,2.10
2017-08-05T01:20:21.112Z,2.30
2017-08-05T01:22:51.623Z,2.00
2017-08-05T01:25:19.132Z,1.90
2017-08-05T01:27:46.615Z,1.63
2017-08-05T01:30:14.396Z,1.47
2017-08-05T01:32:51.954Z,1.57
2017-08-05T01:35:19.746Z,2.37
2017-08-05T01:37:50.317Z,1.27
2017-08-05T01:40:17.803Z,1.53
2017-08-05T01:42:46.412Z,2.67
2017-08-05T01:45:13.908Z,1.30
2017-08-05T01:47:41.396Z,1.70
2017-08-05T01:50:08.901Z,2.10
2017-08-05T01:52:36.401Z,2.00
2017-08-05T01:55:10.584Z,1.83
2017-08-05T01:57:38.090Z,1.70
2017-08-05T02:00:06.699Z,2.33
2017-08-05T02:02:40.945Z,2.00
2017-08-05T02:05:08.779Z,1.40
2017-08-05T02:07:36.287Z,1.50
2017-08-05T02:10:10.866Z,2.13
2017-08-05T02:12:38.359Z,2.60
2017-08-05T02:15:12.091Z,1.50
2017-08-05T02:17:40.615Z,2.33
2017-08-05T02:20:08.111Z,1.90
2017-08-05T02:22:35.903Z,2.33
2017-08-05T02:25:04.176Z,2.20
2017-08-05T02:27:40.905Z,1.57
2017-08-05T02:30:11.371Z,1.53
2017-08-05T02:32:41.300Z,1.97
2017-08-05T02:35:08.789Z,1.53
2017-08-05T02:37:36.285Z,1.33
2017-08-05T02:40:04.079Z,1.87
2017-08-05T02:42:41.945Z,1.50
2017-08-05T02:45:09.442Z,1.97
2017-08-05T02:47:42.946Z,2.07
2017-08-05T02:50:10.736Z,1.10
2017-08-05T02:52:41.254Z,1.90
2017-08-05T02:55:12.197Z,1.23
2017-08-05T02:57:40.316Z,1.43
2017-08-05T03:00:10.844Z,1.50
2017-08-05T03:02:41.717Z,2.07
2017-08-05T03:05:09.203Z,1.00
2017-08-05T03:07:42.721Z,1.80
2017-08-05T03:10:10.217Z,1.47
2017-08-05T03:12:40.740Z,1.80
2017-08-05T03:15:08.251Z,1.30
2017-08-05T03:17:35.739Z,1.77
2017-08-05T03:20:03.541Z,1.50
2017-08-05T03:22:40.643Z,1.40
2017-08-05T03:25:08.455Z,1.80
2017-08-05T03:27:41.738Z,1.40
2017-08-05T03:30:09.572Z,1.90
2017-08-05T03:32:43.021Z,1.37
2017-08-05T03:35:10.808Z,1.67
2017-08-05T03:37:38.307Z,2.20
2017-08-05T03:40:11.974Z,2.73
2017-08-05T03:42:39.474Z,1.47
2017-08-05T03:45:06.985Z,1.90
2017-08-05T03:47:35.293Z,1.90
2017-08-05T03:50:02.771Z,2.10
2017-08-05T03:52:30.716Z,2.00
2017-08-05T03:54:58.223Z,1.93
2017-08-05T03:57:32.219Z,1.87
2017-08-05T03:59:59.699Z,1.80
2017-08-05T04:02:27.195Z,1.40
2017-08-05T04:04:54.700Z,2.80
2017-08-05T04:07:30.251Z,1.73
2017-08-05T04:09:57.755Z,2.10
2017-08-05T04:12:31.451Z,1.80
2017-08-05T04:15:00.043Z,1.90
2017-08-05T04:17:27.541Z,2.03
2017-08-05T04:19:55.041Z,1.97
2017-08-05T04:22:23.331Z,1.77
2017-08-05T04:24:50.833Z,1.87
2017-08-05T04:27:18.328Z,1.63
2017-08-05T04:29:52.954Z,1.87
2017-08-05T04:32:30.760Z,1.63
2017-08-05T04:34:59.019Z,1.67
2017-08-05T04:37:26.507Z,1.80
2017-08-05T04:39:54.021Z,1.90
2017-08-05T04:42:31.613Z,2.33
2017-08-05T04:45:00.532Z,1.53
2017-08-05T04:47:28.033Z,2.30
2017-08-05T04:49:55.855Z,1.50
2017-08-05T04:52:23.380Z,2.50
2017-08-05T04:55:00.900Z,2.30
2017-08-05T04:57:28.413Z,1.73
2017-08-05T04:59:55.899Z,1.70
2017-08-05T05:02:23.409Z,1.90
2017-08-05T05:04:50.901Z,1.77
2017-08-05T05:07:22.187Z,2.00
2017-08-05T05:09:50.462Z,1.63
2017-08-05T05:12:20.813Z,2.07
2017-08-05T05:14:48.307Z,1.87
2017-08-05T05:17:15.804Z,2.10
2017-08-05T05:19:50.827Z,1.73
2017-08-05T05:22:19.104Z,1.80
2017-08-05T05:24:51.251Z,1.90
2017-08-05T05:27:18.747Z,2.10
2017-08-05T05:29:47.258Z,2.53
2017-08-05T05:32:20.714Z,1.73
2017-08-05T05:34:50.970Z,1.70
2017-08-05T05:37:18.467Z,2.00
2017-08-05T05:39:45.964Z,1.40
2017-08-05T05:42:20.430Z,2.97
2017-08-05T05:44:47.923Z,1.63
2017-08-05T05:47:21.605Z,1.80
2017-08-05T05:49:49.095Z,2.07
2017-08-05T05:52:21.291Z,3.17
2017-08-05T05:54:50.543Z,1.93
2017-08-05T05:57:18.030Z,1.40
2017-08-05T05:59:51.299Z,1.90
2017-08-05T06:02:21.100Z,2.43
2017-08-05T06:04:52.087Z,1.60
2017-08-05T06:07:21.184Z,1.70
2017-08-05T06:09:48.691Z,2.27
2017-08-05T06:12:16.215Z,3.00
2017-08-05T06:14:43.741Z,1.47
2017-08-05T06:17:20.615Z,1.60
2017-08-05T06:19:50.399Z,2.37
2017-08-05T06:22:21.447Z,2.33
2017-08-05T06:24:50.628Z,2.57
2017-08-05T06:27:18.125Z,1.93
2017-08-05T06:29:45.658Z,2.70
2017-08-05T06:32:13.164Z,2.17
2017-08-05T06:34:50.743Z,1.77
2017-08-05T06:37:19.004Z,2.00
2017-08-05T06:39:53.293Z,1.83
2017-08-05T06:42:20.798Z,1.83
2017-08-05T06:44:50.287Z,1.63
2017-08-05T06:47:20.831Z,2.23
2017-08-05T06:49:48.324Z,2.07
2017-08-05T06:52:21.916Z,1.70
2017-08-05T06:54:49.407Z,1.47
2017-08-05T06:57:17.227Z,1.53
2017-08-05T06:59:50.738Z,2.13
2017-08-05T07:02:21.869Z,1.47
2017-08-05T07:04:49.365Z,1.87
2017-08-05T07:07:22.945Z,2.07
2017-08-05T07:09:50.434Z,2.10
2017-08-05T07:12:20.985Z,2.53
2017-08-05T07:14:48.481Z,1.40
2017-08-05T07:17:15.983Z,1.93
2017-08-05T07:19:43.781Z,1.83
2017-08-05T07:22:20.036Z,1.83
2017-08-05T07:24:51.160Z,1.73
2017-08-05T07:27:18.662Z,3.53
2017-08-05T07:29:46.162Z,3.13
2017-08-05T07:32:20.387Z,1.93
2017-08-05T07:34:47.931Z,3.00
2017-08-05T07:37:15.439Z,2.30
2017-08-05T07:39:49.989Z,1.90
2017-08-05T07:42:21.252Z,1.80
2017-08-05T07:44:50.463Z,2.87
2017-08-05T07:47:17.959Z,2.43
2017-08-05T07:49:45.463Z,1.80
2017-08-05T07:52:12.959Z,2.20
2017-08-05T07:54:40.746Z,1.10
2017-08-05T07:57:11.553Z,2.10
2017-08-05T07:59:39.079Z,2.33
2017-08-05T08:02:06.592Z,2.03
2017-08-05T08:04:40.078Z,1.70
2017-08-05T08:07:07.886Z,2.20
2017-08-05T08:09:35.378Z,2.50
2017-08-05T08:12:02.904Z,1.67
2017-08-05T08:14:40.451Z,2.47
2017-08-05T08:17:07.949Z,2.63
2017-08-05T08:19:41.719Z,2.20
2017-08-05T08:22:10.453Z,1.90
2017-08-05T08:24:38.258Z,2.13
2017-08-05T08:27:05.750Z,1.90
2017-08-05T08:29:33.246Z,1.60
2017-08-05T08:32:10.620Z,1.73
2017-08-05T08:34:38.132Z,2.00
2017-08-05T08:37:05.648Z,2.70
2017-08-05T08:39:33.143Z,2.23
2017-08-05T08:42:10.476Z,1.43
2017-08-05T08:44:38.013Z,1.23
2017-08-05T08:47:11.955Z,1.50
2017-08-05T08:49:40.451Z,1.77
2017-08-05T08:52:11.255Z,1.23
2017-08-05T08:54:38.754Z,1.20
2017-08-05T08:57:12.184Z,1.83
2017-08-05T08:59:39.675Z,1.63
2017-08-05T09:02:13.208Z,1.10
2017-08-05T09:04:50.536Z,1.63
2017-08-05T09:07:21.834Z,1.20
2017-08-05T09:09:51.007Z,2.90
2017-08-05T09:12:21.801Z,2.03
2017-08-05T09:14:51.111Z,1.10
2017-08-05T09:17:21.925Z,1.83
2017-08-05T09:19:49.436Z,1.80
2017-08-05T09:22:16.968Z,1.50
2017-08-05T09:24:44.795Z,1.30
2017-08-05T09:27:20.618Z,1.60
2017-08-05T09:29:48.400Z,1.50
2017-08-05T09:32:22.629Z,1.07
2017-08-05T09:35:01.456Z,1.77
2017-08-05T09:37:28.947Z,1.50
2017-08-05T09:39:56.436Z,1.23
2017-08-05T09:42:30.953Z,2.00
2017-08-05T09:45:01.771Z,1.80
2017-08-05T09:47:30.372Z,1.40
2017-08-05T09:49:57.881Z,1.37
2017-08-05T09:52:31.725Z,1.73
2017-08-05T09:55:02.142Z,1.83
2017-08-05T09:57:30.654Z,1.67
2017-08-05T09:59:58.429Z,1.53
2017-08-05T10:02:25.927Z,2.00
2017-08-05T10:04:53.432Z,2.07
2017-08-05T10:07:31.082Z,1.37
2017-08-05T10:09:58.589Z,2.30
2017-08-05T10:12:26.391Z,2.00
2017-08-05T10:15:00.932Z,1.70
2017-08-05T10:17:28.788Z,2.13
2017-08-05T10:19:56.306Z,1.90
2017-08-05T10:22:30.875Z,1.80
2017-08-05T10:25:01.456Z,1.30
2017-08-05T10:27:28.960Z,1.80
2017-08-05T10:30:02.626Z,3.47
2017-08-05T10:32:31.162Z,2.03
2017-08-05T10:34:58.656Z,1.83
2017-08-05T10:37:26.177Z,1.90
2017-08-05T10:39:53.680Z,1.83
2017-08-05T10:42:21.489Z,1.77
2017-08-05T10:44:49.104Z,1.87
2017-08-05T10:47:16.622Z,1.20
2017-08-05T10:49:50.356Z,1.60
2017-08-05T10:52:21.261Z,1.07
2017-08-05T10:54:49.116Z,1.37
2017-08-05T10:57:16.616Z,1.90
2017-08-05T10:59:44.116Z,1.47
2017-08-05T11:02:12.401Z,2.10
2017-08-05T11:04:40.676Z,1.50
2017-08-05T11:07:11.846Z,1.73
2017-08-05T11:09:41.017Z,1.80
2017-08-05T11:12:11.977Z,1.47
2017-08-05T11:14:40.338Z,2.50
2017-08-05T11:17:07.902Z,2.00
2017-08-05T11:19:41.340Z,2.10
2017-08-05T11:22:12.161Z,1.77
2017-08-05T11:24:40.883Z,1.60
2017-08-05T11:27:08.379Z,1.27
2017-08-05T11:29:35.880Z,1.20
2017-08-05T11:32:10.735Z,0.97
2017-08-05T11:34:38.237Z,1.37
2017-08-05T11:37:06.113Z,1.23
2017-08-05T11:39:33.674Z,1.10
2017-08-05T11:42:09.841Z,1.47
2017-08-05T11:44:42.029Z,0.97
2017-08-05T11:47:13.757Z,1.10
2017-08-05T11:49:51.664Z,1.10
2017-08-05T11:52:20.832Z,0.93
2017-08-05T11:54:48.315Z,1.20
2017-08-05T11:57:27.573Z,1.20
2017-08-05T12:02:40.630Z,1.03
2017-08-05T12:05:08.120Z,0.80
2017-08-05T12:07:35.629Z,1.83
2017-08-05T12:10:06.852Z,1.47
2017-08-05T12:12:38.411Z,0.90
2017-08-05T12:15:15.413Z,1.43
2017-08-05T12:17:50.767Z,1.63
2017-08-05T12:20:21.812Z,0.90
2017-08-05T12:22:51.053Z,1.10
2017-08-05T12:25:18.543Z,1.10
2017-08-05T12:27:46.049Z,1.23
2017-08-05T12:30:19.931Z,1.33
2017-08-05T12:32:47.894Z,1.57
2017-08-05T12:35:21.665Z,1.40
2017-08-05T12:37:50.313Z,1.50
2017-08-05T12:40:17.808Z,0.93
2017-08-05T12:42:52.056Z,1.20
2017-08-05T12:45:19.577Z,1.40
2017-08-05T12:47:53.187Z,1.60
2017-08-05T12:50:30.489Z,1.57
2017-08-05T12:52:58.301Z,1.00
2017-08-05T12:55:25.792Z,1.10
2017-08-05T12:58:00.722Z,1.60
2017-08-05T13:00:28.215Z,1.27
2017-08-05T13:02:55.700Z,1.23
2017-08-05T13:05:24.302Z,1.77
2017-08-05T13:08:00.071Z,1.43
2017-08-05T13:10:27.839Z,1.27
2017-08-05T13:13:01.345Z,1.20
2017-08-05T13:15:29.178Z,1.27
2017-08-05T13:17:56.694Z,1.27
2017-08-05T13:20:30.465Z,1.30
2017-08-05T13:23:01.005Z,1.23
2017-08-05T13:25:31.914Z,1.00
2017-08-05T13:28:01.201Z,1.40
2017-08-05T13:30:28.691Z,1.30
2017-08-05T13:33:02.180Z,1.60
2017-08-05T13:35:31.210Z,1.63
2017-08-05T13:38:02.198Z,1.33
2017-08-05T13:40:29.691Z,1.20
2017-08-05T13:42:57.214Z,1.37
2017-08-05T13:45:30.432Z,1.30
2017-08-05T13:47:57.929Z,1.23
2017-08-05T13:50:25.701Z,1.10
2017-08-05T13:53:00.219Z,1.03
2017-08-05T13:55:28.037Z,1.27
2017-08-05T13:57:55.528Z,1.13
2017-08-05T14:00:30.214Z,1.17
2017-08-05T14:03:00.862Z,1.00
2017-08-05T14:05:28.355Z,0.70
2017-08-05T14:07:55.863Z,0.80
2017-08-05T14:10:23.426Z,0.70
2017-08-05T14:12:50.923Z,0.67
2017-08-05T14:15:21.978Z,1.13
2017-08-05T14:17:50.710Z,0.67
2017-08-05T14:20:21.293Z,1.03
2017-08-05T14:22:49.111Z,1.07
2017-08-05T14:25:16.613Z,0.60
2017-08-05T14:27:50.997Z,0.50
2017-08-05T14:30:21.623Z,0.90
2017-08-05T14:32:49.119Z,0.97
2017-08-05T14:35:22.730Z,0.77
2017-08-05T14:37:50.227Z,0.83
2017-08-05T14:40:17.725Z,0.80
2017-08-05T14:42:51.482Z,0.70
2017-08-05T14:45:22.241Z,0.73
2017-08-05T14:47:50.077Z,1.10
2017-08-05T14:50:17.589Z,0.70
2017-08-05T14:52:45.100Z,1.10
2017-08-05T14:55:12.602Z,0.90
2017-08-05T14:57:40.538Z,0.70
2017-08-05T15:00:11.255Z,0.57
2017-08-05T15:02:41.664Z,0.70
2017-08-05T15:05:10.212Z,0.63
2017-08-05T15:07:40.844Z,0.70
2017-08-05T15:10:08.348Z,0.70
2017-08-05T15:12:36.662Z,0.50
2017-08-05T15:15:04.151Z,0.50
2017-08-05T15:17:31.943Z,0.60
2017-08-05T15:20:00.628Z,0.50
2017-08-05T15:22:32.523Z,0.70
2017-08-05T15:25:00.903Z,0.40
2017-08-05T15:27:28.471Z,0.60
2017-08-05T15:29:55.981Z,0.40
2017-08-05T15:32:23.484Z,0.80
2017-08-05T15:34:51.358Z,0.50
2017-08-05T15:37:20.504Z,0.60
2017-08-05T15:39:51.593Z,0.60
2017-08-05T15:42:20.647Z,0.60
2017-08-05T15:44:52.533Z,0.60
2017-08-05T15:47:20.027Z,0.63
2017-08-05T15:49:50.552Z,0.60
2017-08-05T15:52:18.056Z,0.40
2017-08-05T15:54:51.353Z,0.73
2017-08-05T15:57:19.245Z,0.80
2017-08-05T15:59:46.754Z,0.50
2017-08-05T16:02:20.376Z,0.60
2017-08-05T16:04:48.626Z,0.60
2017-08-05T16:07:22.613Z,3.77
2017-08-05T16:09:50.126Z,1.70
2017-08-05T16:12:20.853Z,0.70
2017-08-05T16:14:49.166Z,0.50
2017-08-05T16:17:16.665Z,0.80
2017-08-05T16:19:44.470Z,0.60
2017-08-05T16:22:20.031Z,0.70
2017-08-05T16:24:51.285Z,0.53
2017-08-05T16:27:18.797Z,0.80
2017-08-05T16:29:53.231Z,0.67
2017-08-05T16:32:20.765Z,0.50
2017-08-05T16:34:48.262Z,0.40
2017-08-05T16:37:21.667Z,0.77
2017-08-05T16:39:50.528Z,1.00
2017-08-05T16:42:19.112Z,0.53
2017-08-05T16:44:46.594Z,0.90
2017-08-05T16:47:21.226Z,0.50
2017-08-05T16:49:48.727Z,1.00
2017-08-05T16:52:16.256Z,0.60
2017-08-05T16:54:43.762Z,0.70
2017-08-05T16:57:21.336Z,0.90
2017-08-05T16:59:49.121Z,0.70
2017-08-05T17:02:16.610Z,0.70
2017-08-05T17:04:51.165Z,0.60
2017-08-05T17:07:18.656Z,1.00
2017-08-05T17:09:53.297Z,1.10
2017-08-05T17:12:30.508Z,0.70
2017-08-05T17:14:58.367Z,0.60
2017-08-05T17:17:25.858Z,0.60
2017-08-05T17:20:00.586Z,1.00
2017-08-05T17:22:28.090Z,0.80
2017-08-05T17:25:02.223Z,1.10
2017-08-05T17:27:31.123Z,0.80
2017-08-05T17:30:01.822Z,0.87
2017-08-05T17:32:31.185Z,0.70
2017-08-05T17:34:59.460Z,0.90
2017-08-05T17:37:32.967Z,1.50
2017-08-05T17:40:10.591Z,0.87
2017-08-05T17:42:38.431Z,0.90
2017-08-05T17:45:05.928Z,0.70
2017-08-05T17:47:40.645Z,0.60
2017-08-05T17:50:11.072Z,0.80
2017-08-05T17:52:41.784Z,0.90
2017-08-05T17:55:11.078Z,0.90
2017-08-05T17:57:41.926Z,0.90
2017-08-05T18:00:09.506Z,0.83
2017-08-05T18:02:36.993Z,1.00
2017-08-05T18:05:10.867Z,1.57
2017-08-05T18:07:38.366Z,1.03
2017-08-05T18:10:05.880Z,0.83
2017-08-05T18:12:40.416Z,0.87
2017-08-05T18:15:11.623Z,0.70
2017-08-05T18:17:40.750Z,0.80
2017-08-05T18:20:11.584Z,1.30
2017-08-05T18:22:39.072Z,1.33
2017-08-05T18:25:06.555Z,1.10
2017-08-05T18:27:40.695Z,1.00
2017-08-05T18:30:08.194Z,1.60
2017-08-05T18:32:42.130Z,1.20
2017-08-05T18:35:09.616Z,0.97
2017-08-05T18:37:40.339Z,0.87
2017-08-05T18:40:07.837Z,1.40
2017-08-05T18:42:35.342Z,1.10
2017-08-05T18:45:02.847Z,1.20
2017-08-05T18:47:30.332Z,1.13
2017-08-05T18:49:58.105Z,1.00
2017-08-05T18:52:26.218Z,1.13
2017-08-05T18:55:01.139Z,1.00
2017-08-05T18:57:32.132Z,1.10
2017-08-05T19:00:01.353Z,0.90
2017-08-05T19:02:30.564Z,1.00
2017-08-05T19:05:01.531Z,0.87
2017-08-05T19:07:30.772Z,0.90
2017-08-05T19:10:00.451Z,1.20
2017-08-05T19:12:31.045Z,1.17
2017-08-05T19:14:58.662Z,0.93
2017-08-05T19:17:26.448Z,1.13
2017-08-05T19:19:53.923Z,0.90
2017-08-05T19:22:21.398Z,0.73
2017-08-05T19:24:49.172Z,0.97
2017-08-05T19:27:16.670Z,0.97
2017-08-05T19:29:44.165Z,1.07
2017-08-05T19:32:11.666Z,1.00
2017-08-05T19:34:40.002Z,1.40
2017-08-05T19:37:10.989Z,1.20
2017-08-05T19:39:41.435Z,1.40
2017-08-05T19:42:09.234Z,1.00
2017-08-05T19:44:41.111Z,1.50
2017-08-05T19:47:12.373Z,1.00
2017-08-05T19:49:39.871Z,1.20
2017-08-05T19:52:07.360Z,1.43
2017-08-05T19:54:34.860Z,1.23
2017-08-05T19:57:10.368Z,1.00
2017-08-05T19:59:41.476Z,1.07
2017-08-05T20:02:08.963Z,0.90
2017-08-05T20:04:43.228Z,1.17
2017-08-05T20:07:10.720Z,1.20
2017-08-05T20:09:38.203Z,1.07
2017-08-05T20:12:06.511Z,2.00
2017-08-05T20:14:40.235Z,1.27
2017-08-05T20:17:08.006Z,1.80
2017-08-05T20:19:35.500Z,1.50
2017-08-05T20:22:02.996Z,1.20
2017-08-05T20:24:40.308Z,1.10
2017-08-05T20:27:07.873Z,1.30
2017-08-05T20:29:41.449Z,1.70
2017-08-05T20:32:12.240Z,1.40
2017-08-05T20:34:39.988Z,1.30
2017-08-05T20:37:10.430Z,1.40
2017-08-05T20:39:37.914Z,1.00
2017-08-05T20:42:06.170Z,1.43
2017-08-05T20:44:40.895Z,1.40
2017-08-05T20:47:08.422Z,1.43
2017-08-05T20:49:35.917Z,2.27
2017-08-05T20:52:10.955Z,1.43
2017-08-05T20:54:41.368Z,1.20
2017-08-05T20:57:12.261Z,1.20
2017-08-05T20:59:39.774Z,1.53
2017-08-05T21:02:07.261Z,1.10
2017-08-05T21:04:34.767Z,1.30
2017-08-05T21:07:02.250Z,1.20
2017-08-05T21:09:30.076Z,1.40
2017-08-05T21:12:01.101Z,1.00
2017-08-05T21:14:28.609Z,1.43
2017-08-05T21:17:02.079Z,1.10
2017-08-05T21:19:30.887Z,1.47
2017-08-05T21:22:01.883Z,1.40
2017-08-05T21:24:29.388Z,1.30
2017-08-05T21:26:56.876Z,1.50
2017-08-05T21:29:24.376Z,1.33
2017-08-05T21:32:00.412Z,1.90
2017-08-05T21:34:28.196Z,1.40
2017-08-05T21:37:01.569Z,1.63
2017-08-05T21:39:29.404Z,1.33
2017-08-05T21:42:02.813Z,1.90
2017-08-05T21:44:30.593Z,1.30
2017-08-05T21:46:58.089Z,1.60
2017-08-05T21:49:31.827Z,1.37
2017-08-05T21:51:59.351Z,1.53
2017-08-05T21:54:26.844Z,1.10
2017-08-05T21:56:54.654Z,1.00
2017-08-05T21:59:30.003Z,0.90
2017-08-05T22:01:57.512Z,2.00
2017-08-05T22:04:25.009Z,0.90
2017-08-05T22:07:00.778Z,1.20
2017-08-05T22:09:31.357Z,0.97
2017-08-05T22:11:58.842Z,1.20
2017-08-05T22:14:27.115Z,1.00
2017-08-05T22:17:00.796Z,1.57
2017-08-05T22:19:28.595Z,1.20
2017-08-05T22:21:56.176Z,1.60
2017-08-05T22:24:23.659Z,1.30
2017-08-05T22:27:01.092Z,1.20
2017-08-05T22:29:28.600Z,1.00
2017-08-05T22:31:56.122Z,1.40
2017-08-05T22:34:30.804Z,1.73
2017-08-05T22:36:58.611Z,1.20
2017-08-05T22:39:32.101Z,1.20
2017-08-05T22:42:01.207Z,1.10
2017-08-05T22:44:30.420Z,1.40
2017-08-05T22:47:01.230Z,1.20
2017-08-05T22:49:28.734Z,1.20
2017-08-05T22:52:02.857Z,1.30
2017-08-05T22:54:30.404Z,1.73
2017-08-05T22:57:00.834Z,1.20
2017-08-05T22:59:28.338Z,1.13
2017-08-05T23:01:55.831Z,1.17
2017-08-05T23:04:23.714Z,1.60
2017-08-05T23:07:00.820Z,1.00
2017-08-05T23:09:28.648Z,1.40
2017-08-05T23:12:02.023Z,1.30
2017-08-05T23:14:31.136Z,1.67
2017-08-05T23:16:58.624Z,1.40
2017-08-05T23:19:26.115Z,1.80
2017-08-05T23:21:53.618Z,1.33
2017-08-05T23:24:21.103Z,1.97
2017-08-05T23:26:48.615Z,1.70
2017-08-05T23:29:16.864Z,1.53
2017-08-05T23:31:50.606Z,1.27
2017-08-05T23:34:21.035Z,1.40
2017-08-05T23:36:48.516Z,1.40
2017-08-05T23:39:16.034Z,1.60
2017-08-05T23:41:50.453Z,1.60
2017-08-05T23:44:17.963Z,1.00
2017-08-05T23:46:45.477Z,1.30
2017-08-05T23:49:20.373Z,1.03
2017-08-05T23:51:51.192Z,1.00
2017-08-05T23:54:18.963Z,1.33
2017-08-05T23:56:46.460Z,1.23
2017-08-05T23:59:21.085Z,1.63
